createdAt,value
2022-09-23T00:01:42.529Z,94.18
2022-09-23T00:08:54.243Z,94.39
2022-09-23T00:12:08.132Z,94.25
2022-09-23T00:16:06.748Z,94.22
2022-09-23T00:19:15.520Z,94.20
2022-09-23T00:23:02.614Z,94.28
2022-09-23T00:26:31.170Z,94.07
2022-09-23T00:29:47.573Z,93.88
2022-09-23T00:37:10.622Z,94.03
2022-09-23T00:44:46.117Z,94.10
2022-09-23T00:48:19.598Z,94.01
2022-09-23T00:55:33.984Z,94.05
2022-09-23T00:59:06.558Z,94.16
2022-09-23T01:02:31.804Z,94.09
2022-09-23T01:09:56.458Z,94.14
2022-09-23T01:21:29.410Z,94.32
2022-09-23T01:24:51.040Z,94.32
2022-09-23T01:28:16.403Z,94.29
2022-09-23T01:31:31.266Z,94.42
2022-09-23T01:34:56.346Z,94.51
2022-09-23T01:38:11.850Z,94.33
2022-09-23T01:41:31.586Z,94.37
2022-09-23T01:44:30.570Z,94.22
2022-09-23T01:47:43.943Z,94.22
2022-09-23T01:50:58.251Z,94.44
2022-09-23T01:54:13.013Z,94.55
2022-09-23T01:57:18.987Z,94.49
2022-09-23T02:00:36.999Z,94.47
2022-09-23T02:03:32.520Z,94.61
2022-09-23T02:06:33.073Z,94.53
2022-09-23T02:09:37.448Z,94.67
2022-09-23T02:12:49.924Z,94.77
2022-09-23T02:16:02.268Z,94.70
2022-09-23T02:19:14.425Z,94.61
2022-09-23T02:22:27.200Z,94.73
2022-09-23T02:25:41.873Z,94.85
2022-09-23T02:28:43.401Z,94.84
2022-09-23T02:31:58.056Z,94.84
2022-09-23T02:35:13.724Z,94.87
2022-09-23T02:38:29.422Z,94.94
2022-09-23T02:42:00.332Z,94.80
2022-09-23T02:45:12.749Z,94.82
2022-09-23T02:52:08.485Z,95.06
2022-09-23T02:56:03.905Z,95.02
2022-09-23T02:59:22.429Z,95.08
2022-09-23T03:02:43.976Z,95.15
2022-09-23T03:09:57.822Z,95.14
2022-09-23T03:13:15.439Z,95.21
2022-09-23T03:16:31.535Z,95.21
2022-09-23T03:19:52.458Z,95.27
2022-09-23T03:22:48.324Z,95.23
2022-09-23T03:26:16.605Z,95.21
2022-09-23T03:29:27.122Z,95.34
2022-09-23T03:32:51.320Z,95.26
2022-09-23T03:36:21.014Z,95.28
2022-09-23T03:39:40.362Z,95.38
2022-09-23T03:42:50.491Z,95.43
2022-09-23T03:50:01.905Z,95.59
2022-09-23T03:52:51.965Z,95.63
2022-09-23T04:00:20.990Z,95.85
2022-09-23T04:07:46.939Z,95.88
2022-09-23T04:11:02.116Z,96.06
2022-09-23T04:14:12.358Z,95.94
2022-09-23T04:17:22.409Z,95.99
2022-09-23T04:24:40.370Z,96.24
2022-09-23T04:27:48.939Z,96.42
2022-09-23T04:35:00.252Z,96.15
2022-09-23T04:38:56.026Z,96.25
2022-09-23T04:46:07.844Z,96.08
2022-09-23T04:49:22.075Z,96.16
2022-09-23T04:52:32.920Z,96.38
2022-09-23T04:55:42.624Z,96.52
2022-09-23T04:58:52.716Z,96.54
2022-09-23T05:02:02.751Z,96.68
2022-09-23T05:05:21.397Z,96.91
2022-09-23T05:08:33.466Z,97.01
2022-09-23T05:15:44.989Z,97.19
2022-09-23T05:23:00.299Z,97.17
2022-09-23T05:26:27.758Z,97.26
2022-09-23T05:30:06.225Z,97.06
2022-09-23T05:33:16.332Z,97.19
2022-09-23T05:36:27.316Z,97.13
2022-09-23T05:39:37.847Z,97.09
2022-09-23T05:46:51.723Z,97.17
2022-09-23T05:54:08.819Z,97.41
2022-09-23T05:57:36.156Z,97.42
2022-09-23T06:00:58.252Z,97.46
2022-09-23T06:04:22.305Z,97.48
2022-09-23T06:07:24.301Z,97.60
2022-09-23T06:10:37.336Z,97.62
2022-09-23T06:13:47.407Z,97.83
2022-09-23T06:16:57.643Z,97.75
2022-09-23T06:20:08.588Z,97.99
2022-09-23T06:23:23.174Z,97.95
2022-09-23T06:26:23.763Z,98.05
2022-09-23T06:29:53.375Z,98.05
2022-09-23T06:32:53.413Z,98.00
2022-09-23T06:36:36.529Z,97.91
2022-09-23T06:39:49.355Z,97.86
2022-09-23T06:43:02.714Z,97.94
2022-09-23T06:50:25.980Z,97.84
2022-09-23T06:53:59.111Z,97.76
2022-09-23T07:01:17.292Z,97.71
2022-09-23T07:04:29.429Z,98.15
2022-09-23T07:07:22.409Z,98.84
2022-09-23T07:10:33.159Z,97.97
2022-09-23T07:13:46.163Z,96.20
2022-09-23T07:16:45.248Z,95.22
2022-09-23T07:19:26.387Z,93.85
2022-09-23T07:22:15.251Z,93.01
2022-09-23T07:24:51.881Z,89.77
2022-09-23T07:27:25.985Z,87.40
2022-09-23T07:30:24.469Z,86.37
2022-09-23T07:32:55.154Z,84.61
2022-09-23T07:35:40.666Z,83.82
2022-09-23T07:38:20.471Z,83.41
2022-09-23T07:40:55.524Z,83.29
2022-09-23T07:43:44.272Z,83.97
2022-09-23T07:46:22.906Z,83.83
2022-09-23T07:48:55.201Z,82.31
2022-09-23T07:51:26.802Z,82.16
2022-09-23T07:53:56.873Z,79.02
2022-09-23T07:56:30.805Z,78.54
2022-09-23T07:59:04.069Z,77.76
2022-09-23T08:01:34.768Z,75.75
2022-09-23T08:04:05.874Z,73.30
2022-09-23T08:06:36.051Z,71.81
2022-09-23T08:09:05.766Z,69.93
2022-09-23T08:11:37.514Z,67.02
2022-09-23T08:14:08.965Z,65.23
2022-09-23T08:16:38.856Z,63.34
2022-09-23T08:19:08.755Z,63.38
2022-09-23T08:21:39.479Z,64.59
2022-09-23T08:24:09.584Z,64.44
2022-09-23T08:26:39.207Z,61.65
2022-09-23T08:29:10.269Z,59.91
2022-09-23T08:31:39.786Z,60.31
2022-09-23T08:34:09.576Z,61.57
2022-09-23T08:36:39.277Z,60.47
2022-09-23T08:39:08.884Z,59.50
2022-09-23T08:41:42.229Z,58.94
2022-09-23T08:44:15.349Z,57.92
2022-09-23T08:46:47.252Z,56.80
2022-09-23T08:49:21.840Z,55.50
2022-09-23T08:51:55.077Z,53.75
2022-09-23T08:54:31.023Z,52.03
2022-09-23T08:57:04.711Z,51.35
2022-09-23T08:59:39.398Z,50.22
2022-09-23T09:02:35.897Z,50.44
2022-09-23T09:05:22.920Z,48.90
2022-09-23T09:07:53.181Z,49.84
2022-09-23T09:10:24.576Z,49.14
2022-09-23T09:13:01.797Z,49.00
2022-09-23T09:15:31.600Z,49.86
2022-09-23T09:18:03.406Z,50.34
2022-09-23T09:20:42.554Z,51.91
2022-09-23T09:23:20.254Z,53.17
2022-09-23T09:25:52.240Z,53.73
2022-09-23T09:28:24.835Z,52.65
2022-09-23T09:31:05.115Z,52.08
2022-09-23T09:33:42.539Z,50.51
2022-09-23T09:36:20.270Z,49.66
2022-09-23T09:38:51.411Z,49.13
2022-09-23T09:41:24.863Z,46.68
2022-09-23T09:43:57.891Z,45.22
2022-09-23T09:46:40.786Z,45.15
2022-09-23T09:49:28.881Z,43.61
2022-09-23T09:52:21.194Z,41.54
2022-09-23T09:54:51.554Z,39.96
2022-09-23T09:57:35.138Z,37.62
2022-09-23T10:00:20.547Z,37.03
2022-09-23T10:02:53.413Z,35.49
2022-09-23T10:05:27.675Z,36.03
2022-09-23T10:07:57.430Z,35.74
2022-09-23T10:10:32.986Z,36.55
2022-09-23T10:13:14.917Z,36.24
2022-09-23T10:15:45.926Z,37.10
2022-09-23T10:18:19.820Z,38.92
2022-09-23T10:20:49.527Z,38.28
2022-09-23T10:23:21.663Z,37.00
2022-09-23T10:26:00.267Z,36.49
2022-09-23T10:28:33.831Z,36.13
2022-09-23T10:31:07.873Z,37.39
2022-09-23T10:33:41.179Z,38.08
2022-09-23T10:36:15.797Z,37.64
2022-09-23T10:38:45.992Z,35.94
2022-09-23T10:41:42.573Z,34.82
2022-09-23T10:44:56.717Z,33.79
2022-09-23T10:47:32.425Z,33.39
2022-09-23T10:50:09.932Z,32.54
2022-09-23T10:52:45.358Z,32.88
2022-09-23T10:55:23.742Z,32.50
2022-09-23T10:58:09.676Z,33.51
2022-09-23T11:00:48.661Z,34.41
2022-09-23T11:03:38.752Z,34.12
2022-09-23T11:06:38.674Z,34.43
2022-09-23T11:09:19.238Z,35.13
2022-09-23T11:11:58.913Z,34.65
2022-09-23T11:14:34.225Z,33.74
2022-09-23T11:17:15.989Z,32.05
2022-09-23T11:19:54.188Z,31.10
2022-09-23T11:22:38.204Z,32.25
2022-09-23T11:25:19.182Z,33.35
2022-09-23T11:27:57.298Z,34.42
2022-09-23T11:30:30.004Z,34.48
2022-09-23T11:33:14.469Z,33.90
2022-09-23T11:35:48.239Z,32.47
2022-09-23T11:38:28.455Z,30.33
2022-09-23T11:41:01.015Z,29.28
2022-09-23T11:43:37.681Z,29.64
2022-09-23T11:46:10.011Z,30.13
2022-09-23T11:48:45.614Z,30.36
2022-09-23T11:51:18.503Z,31.90
2022-09-23T11:53:51.218Z,32.34
2022-09-23T11:56:33.572Z,33.60
2022-09-23T11:59:07.763Z,35.61
2022-09-23T12:01:41.043Z,37.63
2022-09-23T12:04:20.735Z,39.36
2022-09-23T12:06:53.969Z,41.52
2022-09-23T12:09:47.313Z,42.81
2022-09-23T12:12:25.032Z,43.89
2022-09-23T12:15:00.066Z,40.78
2022-09-23T12:17:43.073Z,37.45
2022-09-23T12:20:30.892Z,35.65
2022-09-23T12:23:07.755Z,35.64
2022-09-23T12:25:46.672Z,36.15
2022-09-23T12:28:20.075Z,36.79
2022-09-23T12:30:51.418Z,35.43
2022-09-23T12:33:24.858Z,34.39
2022-09-23T12:35:55.563Z,34.44
2022-09-23T12:38:34.354Z,33.63
2022-09-23T12:41:19.488Z,33.82
2022-09-23T12:43:55.443Z,33.58
2022-09-23T12:46:27.654Z,32.06
2022-09-23T12:49:05.522Z,30.55
2022-09-23T12:51:35.791Z,29.51
2022-09-23T12:54:23.879Z,28.37
2022-09-23T12:57:00.915Z,26.07
2022-09-23T12:59:31.929Z,27.39
2022-09-23T13:02:23.202Z,29.23
2022-09-23T13:05:14.908Z,31.48
2022-09-23T13:07:46.756Z,33.28
2022-09-23T13:10:18.574Z,35.30
2022-09-23T13:12:48.850Z,37.07
2022-09-23T13:15:29.051Z,37.27
2022-09-23T13:18:21.321Z,37.59
2022-09-23T13:20:51.782Z,38.73
2022-09-23T13:23:25.646Z,39.66
2022-09-23T13:25:57.129Z,41.09
2022-09-23T13:28:29.843Z,42.38
2022-09-23T13:31:00.312Z,43.43
2022-09-23T13:33:34.420Z,43.64
2022-09-23T13:36:07.400Z,41.86
2022-09-23T13:38:37.152Z,39.35
2022-09-23T13:41:09.874Z,36.72
2022-09-23T13:43:42.555Z,34.61
2022-09-23T13:46:17.617Z,33.50
2022-09-23T13:48:48.953Z,32.14
2022-09-23T13:51:23.379Z,32.79
2022-09-23T13:53:57.026Z,34.17
2022-09-23T13:56:27.841Z,35.40
2022-09-23T13:59:12.154Z,36.04
2022-09-23T14:01:41.892Z,36.52
2022-09-23T14:04:23.764Z,35.66
2022-09-23T14:06:53.681Z,34.57
2022-09-23T14:09:25.322Z,33.35
2022-09-23T14:11:56.433Z,32.13
2022-09-23T14:14:26.479Z,32.03
2022-09-23T14:16:56.376Z,32.09
2022-09-23T14:19:27.121Z,31.68
2022-09-23T14:21:57.554Z,31.10
2022-09-23T14:24:32.127Z,30.36
2022-09-23T14:27:03.854Z,30.63
2022-09-23T14:29:37.548Z,31.65
2022-09-23T14:32:08.398Z,31.91
2022-09-23T14:34:45.891Z,32.01
2022-09-23T14:37:43.711Z,31.67
2022-09-23T14:40:15.279Z,31.91
2022-09-23T14:42:48.742Z,32.38
2022-09-23T14:45:20.879Z,32.44
2022-09-23T14:47:51.685Z,32.40
2022-09-23T14:50:39.914Z,33.14
2022-09-23T14:53:26.976Z,33.04
2022-09-23T14:55:58.713Z,33.43
2022-09-23T14:58:29.774Z,33.61
2022-09-23T15:01:00.993Z,34.40
2022-09-23T15:03:30.950Z,35.10
2022-09-23T15:06:08.295Z,36.42
2022-09-23T15:08:38.456Z,38.03
2022-09-23T15:11:09.845Z,40.02
2022-09-23T15:13:41.123Z,41.44
2022-09-23T15:16:11.249Z,43.69
2022-09-23T15:18:42.533Z,45.62
2022-09-23T15:21:13.807Z,47.33
2022-09-23T15:23:47.711Z,48.77
2022-09-23T15:26:18.498Z,49.88
2022-09-23T15:28:48.766Z,51.14
2022-09-23T15:31:19.795Z,52.42
2022-09-23T15:33:50.139Z,53.59
2022-09-23T15:36:21.189Z,54.72
2022-09-23T15:39:03.973Z,55.67
2022-09-23T15:41:33.783Z,56.38
2022-09-23T15:44:06.690Z,57.07
2022-09-23T15:47:01.280Z,57.71
2022-09-23T15:49:34.117Z,58.04
2022-09-23T15:52:04.887Z,58.77
2022-09-23T15:54:47.669Z,59.27
2022-09-23T15:57:21.716Z,59.55
2022-09-23T15:59:51.602Z,59.78
2022-09-23T16:02:25.402Z,60.19
2022-09-23T16:05:06.614Z,60.57
2022-09-23T16:07:36.485Z,60.90
2022-09-23T16:14:42.481Z,61.60
2022-09-23T16:17:14.434Z,62.16
2022-09-23T16:20:03.642Z,62.25
2022-09-23T16:22:35.501Z,62.45
2022-09-23T16:25:06.204Z,62.64
2022-09-23T16:27:36.116Z,62.87
2022-09-23T16:30:07.077Z,63.08
2022-09-23T16:32:36.830Z,62.67
2022-09-23T16:35:10.860Z,62.82
2022-09-23T16:37:48.425Z,62.64
2022-09-23T16:40:20.054Z,62.51
2022-09-23T16:43:10.294Z,62.86
2022-09-23T16:46:02.348Z,62.73
2022-09-23T16:48:32.149Z,63.08
2022-09-23T16:51:23.959Z,62.67
2022-09-23T16:54:25.228Z,62.92
2022-09-23T16:57:35.470Z,63.27
2022-09-23T17:00:34.471Z,63.49
2022-09-23T17:03:44.588Z,63.45
2022-09-23T17:06:29.173Z,63.25
2022-09-23T17:09:06.521Z,63.60
2022-09-23T17:12:04.509Z,63.60
2022-09-23T17:14:45.400Z,64.03
2022-09-23T17:17:55.680Z,64.06
2022-09-23T17:21:26.185Z,64.12
2022-09-23T17:24:26.499Z,63.92
2022-09-23T17:27:25.754Z,64.12
2022-09-23T17:30:05.939Z,64.25
2022-09-23T17:32:38.688Z,64.49
2022-09-23T17:35:48.816Z,64.88
2022-09-23T17:38:39.569Z,64.90
2022-09-23T17:41:28.459Z,64.97
2022-09-23T17:44:19.130Z,64.84
2022-09-23T17:47:33.574Z,64.99
2022-09-23T17:50:43.968Z,65.32
2022-09-23T17:53:38.663Z,65.28
2022-09-23T17:56:27.383Z,65.57
2022-09-23T17:59:05.290Z,65.79
2022-09-23T18:01:36.211Z,65.88
2022-09-23T18:04:27.331Z,65.77
2022-09-23T18:07:43.076Z,66.28
2022-09-23T18:10:13.075Z,66.44
2022-09-23T18:13:33.337Z,66.49
2022-09-23T18:16:35.429Z,66.44
2022-09-23T18:19:26.052Z,66.62
2022-09-23T18:22:24.709Z,66.67
2022-09-23T18:25:38.631Z,66.70
2022-09-23T18:28:17.605Z,66.66
2022-09-23T18:31:28.047Z,66.75
2022-09-23T18:34:39.189Z,67.00
2022-09-23T18:37:51.348Z,67.18
2022-09-23T18:40:56.348Z,67.21
2022-09-23T18:44:00.554Z,67.35
2022-09-23T18:46:46.397Z,67.59
2022-09-23T18:49:50.119Z,67.71
2022-09-23T18:52:53.988Z,67.63
2022-09-23T18:55:34.293Z,67.17
2022-09-23T18:58:27.305Z,66.99
2022-09-23T19:01:37.617Z,66.73
2022-09-23T19:04:14.349Z,66.84
2022-09-23T19:06:56.883Z,66.63
2022-09-23T19:09:59.950Z,66.38
2022-09-23T19:12:53.082Z,66.56
2022-09-23T19:16:07.121Z,66.83
2022-09-23T19:19:17.358Z,67.05
2022-09-23T19:22:29.985Z,67.21
2022-09-23T19:25:40.098Z,67.31
2022-09-23T19:28:33.866Z,67.53
2022-09-23T19:31:50.240Z,67.38
2022-09-23T19:35:02.517Z,67.77
2022-09-23T19:38:21.070Z,68.24
2022-09-23T19:41:14.295Z,68.26
2022-09-23T19:44:07.601Z,68.24
2022-09-23T19:47:07.113Z,68.24
2022-09-23T19:49:49.063Z,68.15
2022-09-23T19:53:02.493Z,67.99
2022-09-23T19:56:07.722Z,68.19
2022-09-23T19:59:20.509Z,68.17
2022-09-23T20:02:36.754Z,68.29
2022-09-23T20:05:56.801Z,68.17
2022-09-23T20:08:52.940Z,68.21
2022-09-23T20:11:33.659Z,68.26
2022-09-23T20:14:27.252Z,68.22
2022-09-23T20:17:33.398Z,68.26
2022-09-23T20:20:34.924Z,68.36
2022-09-23T20:23:26.600Z,68.50
2022-09-23T20:26:37.295Z,68.51
2022-09-23T20:29:48.610Z,68.66
2022-09-23T20:32:44.597Z,68.93
2022-09-23T20:35:38.253Z,69.11
2022-09-23T20:38:56.021Z,69.29
2022-09-23T20:42:08.196Z,69.42
2022-09-23T20:45:34.610Z,69.60
2022-09-23T20:52:46.102Z,69.52
2022-09-23T20:56:21.870Z,69.37
2022-09-23T20:59:32.047Z,69.33
2022-09-23T21:02:59.475Z,69.25
2022-09-23T21:06:10.844Z,69.28
2022-09-23T21:08:59.424Z,69.20
2022-09-23T21:11:51.214Z,69.18
2022-09-23T21:15:00.891Z,69.09
2022-09-23T21:18:15.000Z,68.90
2022-09-23T21:25:31.145Z,68.68
2022-09-23T21:28:46.975Z,68.81
2022-09-23T21:32:02.552Z,68.72
2022-09-23T21:34:55.309Z,68.89
2022-09-23T21:38:09.148Z,69.08
2022-09-23T21:45:20.764Z,69.89
2022-09-23T21:48:34.849Z,69.93
2022-09-23T21:52:03.523Z,70.16
2022-09-23T21:55:28.998Z,70.27
2022-09-23T21:58:37.549Z,70.55
2022-09-23T22:02:04.784Z,70.60
2022-09-23T22:05:23.388Z,70.92
2022-09-23T22:08:37.079Z,71.06
2022-09-23T22:12:05.383Z,71.45
2022-09-23T22:19:17.249Z,71.54
2022-09-23T22:26:40.274Z,72.00
2022-09-23T22:29:40.414Z,72.22
2022-09-23T22:32:43.730Z,72.24
2022-09-23T22:35:52.798Z,72.35
2022-09-23T22:39:16.120Z,72.40
2022-09-23T22:42:25.127Z,72.52
2022-09-23T22:45:35.385Z,72.61
2022-09-23T22:48:45.829Z,72.63
2022-09-23T22:52:16.212Z,72.65
2022-09-23T22:55:26.591Z,72.78
2022-09-23T22:58:37.716Z,72.70
2022-09-23T23:01:54.639Z,72.93
2022-09-23T23:05:06.238Z,72.91
2022-09-23T23:08:17.374Z,72.87
2022-09-23T23:15:29.033Z,73.30
2022-09-23T23:18:41.197Z,73.34
2022-09-23T23:21:51.693Z,73.42
2022-09-23T23:25:09.931Z,73.68
2022-09-23T23:28:20.010Z,73.62
2022-09-23T23:31:32.118Z,73.88
